Portada
METAR-TAF:

METAR-TAF

Aeroports :

Alofi, Niue

latitud: 19-04S, longitud: 169-55W, altitud: 20 m

Observació

L'informe es va fer fa 12 minuts, a les 17:00 UTC
Vent 7 kt del Est/Sud-Est
Temperatura 23°C
Humitat 78%
Pressió 1017 hPa

METAR: NIUE 171700Z AUTO 12007KT 23/19 Q1017

Hora: 06:12 (17:12 UTC)

Pronòstic

L'informe es va fer fa 6 hores i 6 minuts, a les 11:06 UTC
Pronòstic vàlid del 17 a les 12 UTC al 18 a les 12 UTC
Vent 10 kt del Sud-Est
Visibilitat 10 km o més
Núvols disperses a una alçada de 1800 ft
Cel ennuvolat a una alçada de 3000 ft

TAF: NIUE 171106Z 1712/1812 13010KT 9999 SCT018 BKN030

Observacions i pronòstics meteorològics de més de 4000 aeroports (METAR i TAF).

Les estacions disponibles són els punts grocs i vermells al mapa.

Posi el ratolí al punt desitjat per veure el nom de l'estació.

Feu clic per veure les observacions i els pronòstics meteorològics.

Per canviar el mapa: feu clic els botons verds amb una creu de color negre per apropar; al botó verd amb un guió per allunyar la imatge; o en les fletxes verdes per a mapes adjacents.


METAR-TAF: